createdAt,value
2018-07-10T00:02:26.702Z,6.60
2018-07-10T00:07:12.879Z,2.80
2018-07-10T00:12:05.759Z,3.37
2018-07-10T00:14:35.211Z,6.75
2018-07-10T00:17:04.652Z,3.80
2018-07-10T00:19:34.202Z,6.37
2018-07-10T00:22:04.210Z,2.60
2018-07-10T00:24:33.704Z,5.77
2018-07-10T00:27:03.098Z,4.50
2018-07-10T00:29:32.686Z,5.47
2018-07-10T00:32:02.704Z,6.20
2018-07-10T00:34:32.298Z,7.45
2018-07-10T00:37:01.862Z,8.17
2018-07-10T00:39:31.448Z,8.37
2018-07-10T00:42:01.290Z,5.90
2018-07-10T00:44:31.310Z,7.50
2018-07-10T00:47:01.359Z,7.10
2018-07-10T00:49:30.899Z,7.17
2018-07-10T00:52:00.444Z,6.87
2018-07-10T00:54:29.863Z,4.93
2018-07-10T00:56:59.529Z,6.73
2018-07-10T00:59:29.116Z,5.43
2018-07-10T01:02:00.261Z,5.97
2018-07-10T01:04:29.603Z,5.47
2018-07-10T01:06:58.875Z,7.73
2018-07-10T01:09:28.078Z,4.20
2018-07-10T01:11:57.525Z,5.00
2018-07-10T01:14:26.808Z,3.17
2018-07-10T01:16:56.031Z,6.50
2018-07-10T01:19:26.056Z,5.50
2018-07-10T01:21:56.448Z,6.33
2018-07-10T01:24:25.886Z,2.25
2018-07-10T01:26:56.431Z,7.00
2018-07-10T01:29:31.383Z,7.60
2018-07-10T01:32:00.875Z,3.33
2018-07-10T01:34:30.859Z,6.07
2018-07-10T01:37:00.935Z,7.27
2018-07-10T01:39:31.456Z,4.87
2018-07-10T01:42:02.130Z,4.70
2018-07-10T01:44:32.418Z,5.80
2018-07-10T01:47:01.855Z,5.50
2018-07-10T01:49:31.571Z,4.07
2018-07-10T01:52:01.116Z,5.10
2018-07-10T01:54:30.880Z,4.37
2018-07-10T01:57:00.695Z,5.50
2018-07-10T01:59:31.343Z,3.80
2018-07-10T02:02:01.091Z,7.83
2018-07-10T02:04:30.208Z,3.97
2018-07-10T02:06:59.641Z,4.77
2018-07-10T02:09:29.885Z,6.07
2018-07-10T02:11:59.319Z,4.53
2018-07-10T02:14:29.010Z,5.93
2018-07-10T02:16:58.558Z,5.47
2018-07-10T02:19:28.521Z,6.97
2018-07-10T02:21:58.480Z,4.47
2018-07-10T02:24:27.889Z,4.90
2018-07-10T02:26:57.286Z,6.70
2018-07-10T02:29:26.857Z,3.87
2018-07-10T02:31:57.439Z,4.80
2018-07-10T02:34:27.513Z,3.70
2018-07-10T02:36:57.846Z,3.97
2018-07-10T02:39:28.130Z,4.20
2018-07-10T02:41:58.268Z,3.17
2018-07-10T02:44:28.146Z,6.13
2018-07-10T02:46:58.004Z,4.43
2018-07-10T02:49:27.821Z,3.63
2018-07-10T02:52:01.128Z,5.33
2018-07-10T02:54:33.524Z,5.33
2018-07-10T02:57:05.397Z,8.07
2018-07-10T02:59:37.431Z,6.30
2018-07-10T03:02:12.488Z,3.33
2018-07-10T03:04:42.543Z,5.30
2018-07-10T03:07:15.052Z,7.93
2018-07-10T03:09:46.134Z,2.93
2018-07-10T03:12:16.801Z,3.75
2018-07-10T03:14:46.805Z,6.03
2018-07-10T03:17:21.111Z,4.40
2018-07-10T03:19:51.901Z,7.80
2018-07-10T03:22:21.645Z,5.83
2018-07-10T03:24:52.004Z,5.55
2018-07-10T03:27:21.683Z,5.67
2018-07-10T03:29:51.313Z,4.50
2018-07-10T03:32:21.977Z,6.45
2018-07-10T03:34:51.949Z,3.37
2018-07-10T03:37:21.561Z,5.37
2018-07-10T03:39:51.945Z,4.00
2018-07-10T03:42:21.501Z,4.60
2018-07-10T03:44:51.603Z,7.30
2018-07-10T03:47:21.251Z,5.23
2018-07-10T03:49:51.788Z,3.97
2018-07-10T03:52:25.695Z,3.93
2018-07-10T03:54:57.107Z,6.77
2018-07-10T03:57:27.191Z,6.07
2018-07-10T04:00:09.378Z,3.10
2018-07-10T04:02:42.057Z,4.20
2018-07-10T04:05:11.748Z,7.97
2018-07-10T04:07:42.082Z,10.10
2018-07-10T04:10:15.548Z,3.20
2018-07-10T04:12:47.513Z,5.30
2018-07-10T04:15:19.284Z,7.57
2018-07-10T04:18:03.270Z,5.40
2018-07-10T04:21:43.074Z,4.20
2018-07-10T04:24:17.658Z,6.17
2018-07-10T04:27:56.078Z,3.90
2018-07-10T04:30:35.568Z,2.57
2018-07-10T04:33:04.944Z,2.53
2018-07-10T04:35:34.600Z,8.60
2018-07-10T04:38:04.795Z,4.60
2018-07-10T04:40:34.466Z,4.73
2018-07-10T04:43:07.409Z,3.80
2018-07-10T04:45:42.642Z,4.03
2018-07-10T04:48:21.927Z,9.33
2018-07-10T04:50:54.844Z,4.30
2018-07-10T04:53:41.466Z,5.97
2018-07-10T04:56:12.238Z,4.20
2018-07-10T04:58:43.672Z,1.50
2018-07-10T05:01:14.307Z,2.45
2018-07-10T05:03:45.639Z,3.90
2018-07-10T05:06:15.380Z,7.63
2018-07-10T05:08:45.118Z,2.80
2018-07-10T05:11:14.916Z,3.03
2018-07-10T05:13:44.401Z,3.47
2018-07-10T05:16:14.026Z,4.17
2018-07-10T05:18:44.300Z,4.90
2018-07-10T05:21:16.651Z,3.43
2018-07-10T05:23:46.911Z,3.45
2018-07-10T05:26:17.172Z,4.07
2018-07-10T05:28:52.016Z,4.37
2018-07-10T05:31:21.791Z,6.87
2018-07-10T05:33:52.609Z,5.65
2018-07-10T05:36:24.377Z,2.50
2018-07-10T05:39:14.773Z,3.53
2018-07-10T05:41:59.240Z,3.17
2018-07-10T05:44:45.029Z,6.03
2018-07-10T05:47:30.942Z,2.30
2018-07-10T05:50:16.356Z,1.23
2018-07-10T05:53:00.637Z,3.07
2018-07-10T05:55:43.220Z,1.40
2018-07-10T05:58:28.418Z,4.23
2018-07-10T06:01:12.365Z,2.90
2018-07-10T06:03:54.395Z,1.23
2018-07-10T06:06:38.331Z,2.87
2018-07-10T06:09:09.577Z,3.87
2018-07-10T06:11:39.435Z,3.33
2018-07-10T06:14:09.104Z,8.33
2018-07-10T06:16:42.307Z,3.67
2018-07-10T06:19:11.994Z,2.05
2018-07-10T06:21:43.221Z,6.07
2018-07-10T06:24:24.993Z,7.20
2018-07-10T06:27:04.440Z,6.03
2018-07-10T06:29:41.830Z,4.00
2018-07-10T06:32:17.526Z,5.00
2018-07-10T06:34:47.535Z,10.27
2018-07-10T06:37:25.223Z,7.20
2018-07-10T06:39:55.103Z,4.90
2018-07-10T06:42:29.319Z,4.90
2018-07-10T06:45:03.395Z,7.77
2018-07-10T06:47:41.736Z,6.83
2018-07-10T06:50:11.490Z,8.27
2018-07-10T06:52:43.006Z,6.10
2018-07-10T06:55:15.961Z,7.20
2018-07-10T06:57:54.602Z,5.27
2018-07-10T07:00:24.651Z,4.37
2018-07-10T07:02:54.351Z,4.20
2018-07-10T07:05:23.881Z,5.50
2018-07-10T07:07:53.270Z,6.20
2018-07-10T07:10:22.854Z,6.77
2018-07-10T07:12:52.412Z,8.20
2018-07-10T07:15:22.477Z,6.27
2018-07-10T07:17:53.036Z,4.93
2018-07-10T07:20:23.020Z,6.57
2018-07-10T07:22:53.048Z,3.80
2018-07-10T07:25:22.474Z,4.37
2018-07-10T07:27:51.839Z,5.47
2018-07-10T07:30:21.784Z,4.70
2018-07-10T07:32:51.083Z,5.67
2018-07-10T07:35:21.172Z,6.33
2018-07-10T07:37:50.844Z,4.13
2018-07-10T07:40:20.657Z,3.30
2018-07-10T07:42:50.307Z,7.30
2018-07-10T07:45:19.664Z,6.80
2018-07-10T07:47:49.764Z,4.73
2018-07-10T07:50:19.965Z,4.23
2018-07-10T07:52:49.520Z,7.27
2018-07-10T07:55:19.835Z,5.37
2018-07-10T07:57:49.281Z,5.50
2018-07-10T08:00:18.721Z,4.83
2018-07-10T08:02:48.223Z,4.63
2018-07-10T08:05:18.403Z,5.97
2018-07-10T08:07:48.561Z,5.30
2018-07-10T08:10:18.051Z,4.07
2018-07-10T08:12:47.358Z,6.57
2018-07-10T08:15:16.789Z,6.43
2018-07-10T08:17:46.650Z,3.80
2018-07-10T08:20:17.125Z,8.00
2018-07-10T08:22:46.757Z,9.33
2018-07-10T08:25:19.629Z,2.17
2018-07-10T08:27:49.146Z,6.23
2018-07-10T08:30:18.732Z,5.73
2018-07-10T08:32:50.389Z,6.23
2018-07-10T08:35:20.546Z,5.27
2018-07-10T08:37:50.458Z,5.90
2018-07-10T08:40:19.818Z,5.77
2018-07-10T08:42:49.378Z,6.90
2018-07-10T08:45:19.862Z,5.73
2018-07-10T08:47:49.357Z,7.60
2018-07-10T08:50:18.955Z,4.73
2018-07-10T08:52:49.106Z,4.13
2018-07-10T08:55:18.640Z,2.93
2018-07-10T08:57:48.654Z,7.17
2018-07-10T09:00:18.385Z,5.83
2018-07-10T09:02:48.892Z,5.93
2018-07-10T09:05:18.672Z,5.40
2018-07-10T09:07:47.739Z,4.63
2018-07-10T09:10:17.158Z,5.33
2018-07-10T09:12:46.929Z,5.53
2018-07-10T09:15:16.515Z,10.93
2018-07-10T09:17:46.149Z,5.30
2018-07-10T09:20:21.552Z,4.13
2018-07-10T09:22:51.253Z,7.25
2018-07-10T09:25:21.328Z,6.93
2018-07-10T09:27:51.416Z,6.03
2018-07-10T09:30:22.021Z,4.47
2018-07-10T09:32:52.099Z,6.87
2018-07-10T09:35:21.870Z,4.07
2018-07-10T09:37:51.767Z,4.07
2018-07-10T09:40:22.452Z,6.83
2018-07-10T09:42:56.487Z,7.80
2018-07-10T09:45:34.077Z,7.40
2018-07-10T09:48:05.395Z,6.23
2018-07-10T09:50:35.034Z,6.47
2018-07-10T09:53:04.945Z,7.67
2018-07-10T09:55:34.479Z,8.30
2018-07-10T09:58:03.975Z,4.30
2018-07-10T10:00:39.434Z,6.20
2018-07-10T10:03:10.155Z,8.17
2018-07-10T10:05:42.783Z,7.00
2018-07-10T10:08:12.839Z,6.10
2018-07-10T10:10:42.363Z,5.73
2018-07-10T10:13:12.185Z,9.77
2018-07-10T10:15:42.071Z,8.97
2018-07-10T10:18:11.995Z,6.17
2018-07-10T10:20:42.185Z,9.37
2018-07-10T10:23:13.687Z,9.40
2018-07-10T10:25:48.375Z,11.20
2018-07-10T10:28:17.353Z,7.23
2018-07-10T10:30:46.757Z,7.87
2018-07-10T10:33:16.404Z,8.37
2018-07-10T10:35:46.077Z,11.43
2018-07-10T10:38:16.035Z,7.55
2018-07-10T10:40:47.602Z,9.60
2018-07-10T10:43:17.176Z,8.10
2018-07-10T10:45:46.633Z,9.33
2018-07-10T10:48:17.646Z,7.07
2018-07-10T10:50:50.358Z,7.70
2018-07-10T10:53:20.661Z,10.57
2018-07-10T10:55:50.320Z,7.83
2018-07-10T10:58:20.983Z,7.83
2018-07-10T11:00:50.946Z,10.80
2018-07-10T11:03:20.516Z,7.67
2018-07-10T11:05:50.243Z,6.60
2018-07-10T11:08:21.586Z,10.20
2018-07-10T11:10:51.659Z,10.47
2018-07-10T11:13:21.210Z,8.97
2018-07-10T11:15:51.756Z,12.30
2018-07-10T11:18:43.072Z,9.63
2018-07-10T11:21:19.148Z,8.13
2018-07-10T11:23:58.232Z,9.20
2018-07-10T11:26:37.806Z,13.23
2018-07-10T11:29:07.905Z,9.70
2018-07-10T11:31:37.521Z,15.43
2018-07-10T11:34:07.690Z,15.17
2018-07-10T11:36:37.532Z,12.27
2018-07-10T11:39:09.354Z,14.87
2018-07-10T11:41:49.267Z,19.47
2018-07-10T11:44:19.113Z,16.77
2018-07-10T11:46:48.913Z,18.90
2018-07-10T11:49:19.033Z,14.47
2018-07-10T11:51:48.889Z,16.30
2018-07-10T11:54:17.980Z,11.67
2018-07-10T11:56:47.404Z,13.27
2018-07-10T11:59:16.589Z,19.00
2018-07-10T12:01:46.109Z,11.73
2018-07-10T12:04:15.666Z,16.33
2018-07-10T12:06:49.678Z,17.53
2018-07-10T12:09:19.635Z,13.87
2018-07-10T12:11:49.443Z,18.57
2018-07-10T12:14:19.135Z,14.80
2018-07-10T12:16:48.536Z,14.65
2018-07-10T12:19:18.648Z,14.77
2018-07-10T12:21:48.393Z,15.77
2018-07-10T12:24:17.783Z,15.90
2018-07-10T12:26:47.337Z,20.40
2018-07-10T12:29:16.835Z,18.83
2018-07-10T12:31:46.695Z,17.57
2018-07-10T12:34:16.916Z,15.23
2018-07-10T12:36:46.343Z,16.70
2018-07-10T12:39:16.086Z,14.00
2018-07-10T12:41:46.224Z,17.37
2018-07-10T12:44:15.977Z,21.50
2018-07-10T12:46:46.189Z,20.53
2018-07-10T12:49:16.662Z,14.60
2018-07-10T12:51:46.137Z,16.30
2018-07-10T12:54:15.705Z,15.40
2018-07-10T12:56:45.124Z,18.90
2018-07-10T12:59:14.987Z,19.90
2018-07-10T13:01:44.968Z,20.73
2018-07-10T13:04:14.568Z,16.30
2018-07-10T13:06:44.076Z,18.90
2018-07-10T13:09:14.277Z,16.60
2018-07-10T13:11:43.810Z,20.80
2018-07-10T13:14:13.226Z,23.23
2018-07-10T13:16:42.714Z,18.50
2018-07-10T13:19:13.946Z,19.00
2018-07-10T13:21:44.003Z,19.03
2018-07-10T13:24:13.680Z,17.13
2018-07-10T13:26:43.189Z,27.67
2018-07-10T13:29:12.797Z,18.63
2018-07-10T13:31:42.871Z,16.57
2018-07-10T13:34:13.118Z,22.00
2018-07-10T13:36:42.686Z,21.00
2018-07-10T13:39:12.297Z,22.43
2018-07-10T13:41:41.759Z,17.83
2018-07-10T13:44:11.120Z,19.37
2018-07-10T13:46:40.859Z,25.47
2018-07-10T13:49:10.593Z,23.97
2018-07-10T13:51:39.891Z,28.30
2018-07-10T13:54:09.464Z,24.75
2018-07-10T13:56:38.882Z,18.97
2018-07-10T13:59:08.958Z,19.33
2018-07-10T14:01:40.551Z,19.63
2018-07-10T14:04:10.269Z,16.73
2018-07-10T14:06:39.549Z,20.30
2018-07-10T14:09:08.977Z,18.80
2018-07-10T14:11:40.041Z,22.00
2018-07-10T14:14:09.504Z,19.40
2018-07-10T14:16:39.332Z,23.37
2018-07-10T14:19:10.287Z,21.23
2018-07-10T14:21:39.976Z,23.33
2018-07-10T14:24:09.665Z,18.53
2018-07-10T14:26:39.370Z,24.07
2018-07-10T14:29:08.740Z,19.57
2018-07-10T14:31:38.295Z,23.40
2018-07-10T14:34:07.815Z,20.70
2018-07-10T14:36:37.238Z,24.67
2018-07-10T14:39:07.281Z,19.37
2018-07-10T14:41:37.125Z,26.07
2018-07-10T14:44:06.994Z,21.77
2018-07-10T14:46:36.565Z,22.20
2018-07-10T14:49:06.099Z,19.27
2018-07-10T14:51:43.139Z,19.60
2018-07-10T14:54:13.679Z,22.57
2018-07-10T14:56:43.558Z,22.90
2018-07-10T14:59:13.831Z,21.57
2018-07-10T15:01:43.808Z,26.17
2018-07-10T15:04:12.929Z,21.53
2018-07-10T15:06:42.879Z,21.03
2018-07-10T15:09:12.200Z,19.17
2018-07-10T15:11:41.213Z,22.67
2018-07-10T15:14:11.824Z,19.10
2018-07-10T15:16:46.796Z,17.00
2018-07-10T15:19:16.857Z,18.40
2018-07-10T15:21:46.464Z,21.97
2018-07-10T15:24:16.089Z,16.95
2018-07-10T15:26:45.727Z,13.30
2018-07-10T15:29:21.836Z,20.47
2018-07-10T15:31:51.390Z,14.80
2018-07-10T15:34:20.953Z,22.23
2018-07-10T15:36:50.415Z,20.77
2018-07-10T15:39:20.029Z,14.37
2018-07-10T15:41:50.657Z,14.23
2018-07-10T15:44:20.174Z,13.37
2018-07-10T15:46:49.745Z,19.57
2018-07-10T15:49:19.787Z,15.00
2018-07-10T15:51:50.267Z,19.53
2018-07-10T15:54:20.273Z,20.17
2018-07-10T15:56:49.868Z,24.15
2018-07-10T15:59:19.395Z,34.90
2018-07-10T16:01:49.358Z,19.20
2018-07-10T16:04:19.010Z,19.90
2018-07-10T16:06:49.137Z,19.77
2018-07-10T16:09:21.936Z,20.00
2018-07-10T16:11:55.447Z,19.40
2018-07-10T16:14:24.776Z,20.77
2018-07-10T16:16:54.220Z,19.20
2018-07-10T16:19:33.456Z,20.53
2018-07-10T16:22:35.331Z,16.60
2018-07-10T16:25:39.478Z,15.67
2018-07-10T16:28:22.910Z,25.60
2018-07-10T16:30:52.190Z,18.33
2018-07-10T16:33:31.315Z,18.83
2018-07-10T16:36:01.656Z,21.47
2018-07-10T16:38:31.878Z,17.10
2018-07-10T16:41:06.822Z,17.13
2018-07-10T16:43:36.468Z,17.73
2018-07-10T16:46:06.042Z,21.50
2018-07-10T16:49:11.015Z,17.00
2018-07-10T16:51:42.191Z,19.40
2018-07-10T16:54:11.638Z,18.80
2018-07-10T16:56:41.172Z,22.27
2018-07-10T16:59:10.453Z,16.53
2018-07-10T17:01:40.723Z,21.20
2018-07-10T17:04:10.961Z,15.93
2018-07-10T17:06:40.503Z,18.87
2018-07-10T17:09:10.016Z,19.57
2018-07-10T17:11:39.657Z,12.37
2018-07-10T17:14:09.228Z,15.73
2018-07-10T17:16:38.859Z,15.77
2018-07-10T17:19:08.446Z,19.50
2018-07-10T17:21:38.011Z,19.80
2018-07-10T17:24:07.576Z,16.40
2018-07-10T17:26:37.089Z,21.20
2018-07-10T17:29:10.066Z,22.85
2018-07-10T17:31:39.598Z,18.35
2018-07-10T17:34:09.421Z,25.63
2018-07-10T17:36:39.083Z,19.57
2018-07-10T17:39:08.605Z,23.47
2018-07-10T17:41:38.219Z,25.07
2018-07-10T17:44:10.769Z,23.83
2018-07-10T17:46:40.735Z,23.47
2018-07-10T17:49:10.251Z,24.43
2018-07-10T17:51:39.849Z,18.90
2018-07-10T17:54:09.215Z,23.27
2018-07-10T17:56:39.336Z,25.17
2018-07-10T17:59:09.105Z,24.20
2018-07-10T18:01:38.582Z,23.23
2018-07-10T18:04:08.513Z,26.87
2018-07-10T18:06:38.277Z,29.47
2018-07-10T18:09:08.221Z,23.10
2018-07-10T18:11:37.640Z,24.13
2018-07-10T18:14:06.903Z,27.27
2018-07-10T18:16:36.925Z,28.45
2018-07-10T18:19:06.250Z,26.97
2018-07-10T18:21:36.370Z,30.53
2018-07-10T18:24:05.786Z,32.40
2018-07-10T18:26:35.025Z,30.67
2018-07-10T18:29:04.354Z,37.90
2018-07-10T18:31:33.628Z,32.63
2018-07-10T18:34:03.267Z,27.63
2018-07-10T18:36:32.879Z,30.77
2018-07-10T18:39:03.114Z,33.10
2018-07-10T18:41:32.505Z,26.73
2018-07-10T18:44:02.114Z,30.13
2018-07-10T18:46:32.032Z,28.70
2018-07-10T18:49:02.108Z,28.25
2018-07-10T18:51:33.258Z,33.77
2018-07-10T18:54:03.897Z,32.83
2018-07-10T18:56:33.434Z,36.93
2018-07-10T18:59:07.339Z,28.67
2018-07-10T19:01:51.421Z,26.67
2018-07-10T19:04:53.775Z,36.63
2018-07-10T19:07:23.772Z,29.30
2018-07-10T19:09:53.308Z,27.93
2018-07-10T19:12:24.002Z,24.90
2018-07-10T19:14:53.592Z,24.47
2018-07-10T19:17:28.578Z,27.13
2018-07-10T19:20:04.267Z,32.65
2018-07-10T19:23:44.231Z,28.07
2018-07-10T19:26:15.022Z,35.63
2018-07-10T19:28:46.145Z,28.60
2018-07-10T19:31:19.159Z,28.47
2018-07-10T19:33:53.621Z,31.10
2018-07-10T19:36:23.400Z,30.27
2018-07-10T19:38:53.287Z,31.15
2018-07-10T19:41:23.761Z,31.83
2018-07-10T19:43:54.136Z,33.97
2018-07-10T19:46:24.059Z,30.70
2018-07-10T19:48:54.347Z,30.97
2018-07-10T19:51:27.393Z,32.17
2018-07-10T19:54:15.559Z,30.33
2018-07-10T19:56:44.990Z,29.47
2018-07-10T19:59:15.567Z,34.57
2018-07-10T20:01:54.441Z,30.17
2018-07-10T20:04:28.116Z,31.13
2018-07-10T20:07:10.802Z,32.37
2018-07-10T20:09:51.501Z,29.37
2018-07-10T20:12:32.336Z,25.17
2018-07-10T20:15:14.181Z,33.93
2018-07-10T20:18:26.261Z,26.93
2018-07-10T20:21:06.483Z,34.43
2018-07-10T20:23:54.385Z,39.13
2018-07-10T20:26:34.097Z,25.90
2018-07-10T20:29:22.716Z,29.03
2018-07-10T20:32:02.197Z,27.33
2018-07-10T20:35:38.754Z,29.07
2018-07-10T20:38:08.551Z,31.80
2018-07-10T20:40:39.545Z,29.43
2018-07-10T20:43:17.223Z,33.03
2018-07-10T20:45:53.334Z,28.60
2018-07-10T20:48:59.560Z,28.70
2018-07-10T20:51:38.098Z,37.20
2018-07-10T20:55:16.228Z,28.37
2018-07-10T20:57:56.814Z,32.00
2018-07-10T21:00:28.408Z,31.13
2018-07-10T21:03:13.555Z,33.97
2018-07-10T21:05:47.269Z,35.23
2018-07-10T21:08:25.217Z,33.90
2018-07-10T21:10:58.734Z,34.00
2018-07-10T21:13:37.996Z,30.97
2018-07-10T21:16:18.787Z,31.20
2018-07-10T21:19:06.065Z,35.90
2018-07-10T21:21:45.934Z,31.83
2018-07-10T21:24:22.913Z,40.35
2018-07-10T21:27:03.417Z,38.27
2018-07-10T21:30:35.977Z,37.57
2018-07-10T21:33:05.928Z,38.00
2018-07-10T21:35:47.587Z,37.80
2018-07-10T21:38:34.870Z,36.20
2018-07-10T21:41:13.353Z,33.87
2018-07-10T21:43:53.014Z,28.23
2018-07-10T21:46:27.476Z,29.55
2018-07-10T21:49:08.339Z,40.53
2018-07-10T21:51:38.109Z,33.03
2018-07-10T21:54:08.628Z,32.20
2018-07-10T21:56:38.320Z,34.33
2018-07-10T21:59:07.886Z,33.53
2018-07-10T22:01:48.799Z,32.10
2018-07-10T22:04:22.883Z,34.87
2018-07-10T22:06:55.049Z,35.43
2018-07-10T22:09:26.803Z,27.30
2018-07-10T22:11:56.419Z,31.10
2018-07-10T22:14:26.344Z,39.40
2018-07-10T22:16:55.939Z,31.97
2018-07-10T22:19:28.717Z,30.43
2018-07-10T22:21:58.444Z,33.87
2018-07-10T22:24:28.872Z,30.70
2018-07-10T22:26:59.708Z,36.77
2018-07-10T22:29:34.281Z,30.90
2018-07-10T22:32:09.488Z,34.33
2018-07-10T22:34:41.406Z,37.97
2018-07-10T22:37:11.472Z,36.67
2018-07-10T22:39:42.364Z,39.23
2018-07-10T22:42:11.398Z,43.33
2018-07-10T22:44:47.522Z,33.70
2018-07-10T22:47:20.190Z,37.80
2018-07-10T22:49:50.091Z,38.70
2018-07-10T22:52:19.544Z,40.40
2018-07-10T22:54:49.174Z,40.87
2018-07-10T22:57:18.700Z,36.03
2018-07-10T22:59:48.842Z,34.53
2018-07-10T23:02:18.520Z,36.30
2018-07-10T23:04:48.994Z,32.70
2018-07-10T23:07:19.708Z,37.83
2018-07-10T23:09:49.776Z,38.77
2018-07-10T23:12:19.725Z,38.25
2018-07-10T23:14:49.329Z,36.23
2018-07-10T23:17:19.486Z,31.63
2018-07-10T23:19:49.158Z,37.43
2018-07-10T23:22:19.571Z,31.60
2018-07-10T23:24:49.370Z,34.97
2018-07-10T23:27:18.815Z,44.13
2018-07-10T23:29:49.741Z,35.00
2018-07-10T23:32:19.317Z,36.60
2018-07-10T23:34:49.003Z,41.27
2018-07-10T23:37:19.021Z,37.23
2018-07-10T23:39:51.567Z,34.33
2018-07-10T23:42:31.675Z,42.07
2018-07-10T23:45:07.027Z,36.20
2018-07-10T23:47:42.697Z,33.33
2018-07-10T23:50:18.565Z,30.90
2018-07-10T23:53:53.771Z,36.97
2018-07-10T23:56:23.556Z,40.37
2018-07-10T23:58:52.958Z,33.97
